createdAt,value
2022-12-16T00:04:51.700Z,-1.21
2022-12-16T00:15:04.773Z,-1.07
2022-12-16T00:25:17.709Z,-1.04
2022-12-16T00:35:30.768Z,-1.05
2022-12-16T00:45:43.820Z,-1.06
2022-12-16T00:55:56.769Z,-0.94
2022-12-16T01:06:09.745Z,-0.95
2022-12-16T01:16:22.815Z,-0.99
2022-12-16T01:26:35.781Z,-0.96
2022-12-16T01:36:48.779Z,-0.92
2022-12-16T01:47:03.771Z,-1.00
2022-12-16T01:57:20.801Z,-1.04
2022-12-16T02:07:33.797Z,-1.12
2022-12-16T02:18:06.816Z,-1.22
2022-12-16T02:28:33.773Z,-1.21
2022-12-16T02:39:15.819Z,-1.14
2022-12-16T02:49:28.824Z,-1.39
2022-12-16T03:00:14.829Z,-1.39
2022-12-16T03:10:36.808Z,-1.28
2022-12-16T03:21:01.816Z,-1.26
2022-12-16T03:31:35.837Z,-1.33
2022-12-16T03:41:50.860Z,-1.46
2022-12-16T03:52:03.865Z,-1.28
2022-12-16T04:02:17.058Z,-1.29
2022-12-16T04:12:48.833Z,-1.25
2022-12-16T04:23:19.893Z,-1.22
2022-12-16T04:33:50.857Z,-1.31
2022-12-16T04:44:21.889Z,-1.31
2022-12-16T04:54:52.862Z,-1.27
2022-12-16T05:05:23.900Z,-1.32
2022-12-16T05:15:53.932Z,-1.52
2022-12-16T05:26:24.941Z,-1.46
2022-12-16T05:36:55.892Z,-1.32
2022-12-16T05:47:26.983Z,-1.35
2022-12-16T05:57:57.910Z,-1.21
2022-12-16T06:08:28.943Z,-1.28
2022-12-16T06:18:59.912Z,-1.21
2022-12-16T06:29:30.952Z,-1.25
2022-12-16T06:40:01.935Z,-1.23
2022-12-16T06:50:33.001Z,-1.15
2022-12-16T07:01:03.995Z,-1.21
2022-12-16T07:11:34.939Z,-1.37
2022-12-16T07:22:11.991Z,-1.17
2022-12-16T07:32:42.959Z,-0.97
2022-12-16T07:43:21.023Z,-1.03
2022-12-16T07:53:52.944Z,-0.90
2022-12-16T08:04:24.011Z,-0.80
2022-12-16T08:14:54.980Z,-0.94
2022-12-16T08:25:27.006Z,-0.59
2022-12-16T08:35:58.009Z,-0.62
2022-12-16T08:46:28.143Z,-0.57
2022-12-16T08:57:00.012Z,-0.49
2022-12-16T09:07:39.049Z,-0.30
2022-12-16T09:18:10.996Z,-0.45
2022-12-16T09:28:42.064Z,-0.26
2022-12-16T09:39:13.084Z,0.02
2022-12-16T09:50:05.088Z,0.16
2022-12-16T10:00:47.032Z,0.22
2022-12-16T10:11:18.066Z,0.30
2022-12-16T10:22:01.064Z,0.48
2022-12-16T10:32:56.117Z,0.75
2022-12-16T10:43:40.044Z,0.64
2022-12-16T10:54:13.094Z,0.67
2022-12-16T11:04:55.788Z,0.95
2022-12-16T11:15:29.837Z,0.94
2022-12-16T11:26:01.111Z,1.11
2022-12-16T11:36:47.153Z,1.06
2022-12-16T11:47:17.123Z,1.26
2022-12-16T11:57:52.146Z,1.15
2022-12-16T12:08:33.093Z,0.99
2022-12-16T12:19:17.143Z,1.16
2022-12-16T12:30:16.372Z,0.99
2022-12-16T12:40:51.128Z,0.90
2022-12-16T12:51:39.173Z,0.81
2022-12-16T13:02:12.265Z,0.71
2022-12-16T13:12:52.157Z,0.85
2022-12-16T13:23:54.177Z,0.68
2022-12-16T13:34:32.176Z,0.50
2022-12-16T13:45:09.189Z,0.57
2022-12-16T13:55:45.194Z,0.56
2022-12-16T14:06:17.214Z,0.41
2022-12-16T14:17:04.257Z,0.34
2022-12-16T14:27:44.218Z,0.25
2022-12-16T14:38:15.215Z,0.05
2022-12-16T14:48:58.246Z,0.02
2022-12-16T14:59:40.208Z,-0.07
2022-12-16T15:10:15.275Z,-0.14
2022-12-16T15:20:56.214Z,-0.07
2022-12-16T15:31:27.335Z,-0.31
2022-12-16T15:42:00.254Z,-0.31
2022-12-16T15:52:56.269Z,-0.49
2022-12-16T16:03:27.350Z,-0.35
2022-12-16T16:14:05.011Z,-0.39
2022-12-16T16:24:38.293Z,-0.48
2022-12-16T16:35:09.283Z,-0.45
2022-12-16T16:45:40.267Z,-0.46
2022-12-16T16:56:15.165Z,-0.50
2022-12-16T17:06:51.272Z,-0.41
2022-12-16T17:17:22.313Z,-0.43
2022-12-16T17:27:52.423Z,-0.72
2022-12-16T17:38:23.338Z,-0.79
2022-12-16T17:48:54.319Z,-0.89
2022-12-16T17:59:25.321Z,-1.00
2022-12-16T18:09:56.317Z,-0.82
2022-12-16T18:20:34.356Z,-0.86
2022-12-16T18:31:05.400Z,-0.78
2022-12-16T18:41:45.365Z,-1.03
2022-12-16T18:52:16.359Z,-0.90
2022-12-16T19:02:48.516Z,-0.84
2022-12-16T19:13:24.364Z,-0.80
2022-12-16T19:24:02.377Z,-0.89
2022-12-16T19:34:33.380Z,-0.87
2022-12-16T19:45:04.441Z,-0.94
2022-12-16T19:55:35.405Z,-0.95
2022-12-16T20:06:06.409Z,-0.81
2022-12-16T20:16:44.382Z,-0.91
2022-12-16T20:27:15.450Z,-0.84
2022-12-16T20:37:46.429Z,-0.98
2022-12-16T20:48:19.427Z,-0.93
2022-12-16T20:58:49.424Z,-0.96
2022-12-16T21:09:20.413Z,-1.13
2022-12-16T21:19:51.464Z,-1.17
2022-12-16T21:30:22.416Z,-1.06
2022-12-16T21:40:53.452Z,-1.25
2022-12-16T21:51:27.436Z,-1.40
2022-12-16T22:01:58.565Z,-1.46
2022-12-16T22:12:29.453Z,-1.58
2022-12-16T22:23:07.516Z,-1.62
2022-12-16T22:33:39.484Z,-1.54
2022-12-16T22:44:11.494Z,-1.60
2022-12-16T22:54:42.505Z,-1.74
2022-12-16T23:05:14.525Z,-1.64
2022-12-16T23:15:45.555Z,-1.53
2022-12-16T23:26:24.545Z,-1.58
2022-12-16T23:36:55.503Z,-1.55
2022-12-16T23:47:27.564Z,-1.57
2022-12-16T23:57:58.488Z,-1.55
